sensor_id;sensor_type;location;lat;lon;timestamp;temperature;humidity
25112;DHT22;13092;51.996;4.458;2022-08-19T00:00:32;20.50;99.90
25112;DHT22;13092;51.996;4.458;2022-08-19T00:03:08;20.50;99.90
25112;DHT22;13092;51.996;4.458;2022-08-19T00:05:37;20.50;99.90
25112;DHT22;13092;51.996;4.458;2022-08-19T00:08:09;20.40;99.90
25112;DHT22;13092;51.996;4.458;2022-08-19T00:10:42;20.60;99.90
25112;DHT22;13092;51.996;4.458;2022-08-19T00:13:12;20.50;99.90
25112;DHT22;13092;51.996;4.458;2022-08-19T00:15:42;20.60;99.90
25112;DHT22;13092;51.996;4.458;2022-08-19T00:18:12;20.50;99.90
25112;DHT22;13092;51.996;4.458;2022-08-19T00:20:41;20.40;99.90
25112;DHT22;13092;51.996;4.458;2022-08-19T00:23:09;20.40;99.90
25112;DHT22;13092;51.996;4.458;2022-08-19T00:25:38;20.40;99.90
25112;DHT22;13092;51.996;4.458;2022-08-19T00:28:18;20.30;99.90
25112;DHT22;13092;51.996;4.458;2022-08-19T00:30:52;20.40;99.90
25112;DHT22;13092;51.996;4.458;2022-08-19T00:33:24;20.20;99.90
25112;DHT22;13092;51.996;4.458;2022-08-19T00:35:56;20.20;99.90
25112;DHT22;13092;51.996;4.458;2022-08-19T00:38:27;20.20;99.90
25112;DHT22;13092;51.996;4.458;2022-08-19T00:41:04;20.20;99.90
25112;DHT22;13092;51.996;4.458;2022-08-19T00:43:36;20.20;99.90
25112;DHT22;13092;51.996;4.458;2022-08-19T00:46:04;20.20;99.90
25112;DHT22;13092;51.996;4.458;2022-08-19T00:48:34;20.20;99.90
25112;DHT22;13092;51.996;4.458;2022-08-19T00:51:09;20.10;99.90
25112;DHT22;13092;51.996;4.458;2022-08-19T00:53:38;20.30;99.90
25112;DHT22;13092;51.996;4.458;2022-08-19T00:56:10;20.10;99.90
25112;DHT22;13092;51.996;4.458;2022-08-19T00:58:41;20.10;99.90
25112;DHT22;13092;51.996;4.458;2022-08-19T01:01:12;20.10;99.90
25112;DHT22;13092;51.996;4.458;2022-08-19T01:03:42;20.10;99.90
25112;DHT22;13092;51.996;4.458;2022-08-19T01:06:24;20.30;99.90
25112;DHT22;13092;51.996;4.458;2022-08-19T01:08:54;20.10;99.90
25112;DHT22;13092;51.996;4.458;2022-08-19T01:11:22;20.10;99.90
25112;DHT22;13092;51.996;4.458;2022-08-19T01:13:53;20.10;99.90
25112;DHT22;13092;51.996;4.458;2022-08-19T01:16:23;20.10;99.90
25112;DHT22;13092;51.996;4.458;2022-08-19T01:18:54;20.10;99.90
25112;DHT22;13092;51.996;4.458;2022-08-19T01:21:32;20.10;99.90
25112;DHT22;13092;51.996;4.458;2022-08-19T01:24:04;20.20;99.90
25112;DHT22;13092;51.996;4.458;2022-08-19T01:26:40;20.10;99.90
25112;DHT22;13092;51.996;4.458;2022-08-19T01:29:12;20.20;99.90
25112;DHT22;13092;51.996;4.458;2022-08-19T01:31:44;20.20;99.90
25112;DHT22;13092;51.996;4.458;2022-08-19T01:34:12;20.20;99.90
25112;DHT22;13092;51.996;4.458;2022-08-19T01:36:42;20.20;99.90
25112;DHT22;13092;51.996;4.458;2022-08-19T01:39:18;20.20;99.90
25112;DHT22;13092;51.996;4.458;2022-08-19T01:41:47;20.30;99.90
25112;DHT22;13092;51.996;4.458;2022-08-19T01:44:16;20.20;99.90
25112;DHT22;13092;51.996;4.458;2022-08-19T01:46:48;20.10;99.90
25112;DHT22;13092;51.996;4.458;2022-08-19T01:49:19;20.10;99.90
25112;DHT22;13092;51.996;4.458;2022-08-19T01:51:56;20.30;99.90
25112;DHT22;13092;51.996;4.458;2022-08-19T01:54:29;20.20;99.90
25112;DHT22;13092;51.996;4.458;2022-08-19T01:57:08;20.10;99.90
25112;DHT22;13092;51.996;4.458;2022-08-19T01:59:41;20.10;99.90
25112;DHT22;13092;51.996;4.458;2022-08-19T02:02:11;20.00;99.90
25112;DHT22;13092;51.996;4.458;2022-08-19T02:04:41;19.90;99.90
25112;DHT22;13092;51.996;4.458;2022-08-19T02:07:09;20.10;99.90
25112;DHT22;13092;51.996;4.458;2022-08-19T02:09:39;20.00;99.90
25112;DHT22;13092;51.996;4.458;2022-08-19T02:12:08;20.10;99.90
25112;DHT22;13092;51.996;4.458;2022-08-19T02:14:39;20.10;99.90
25112;DHT22;13092;51.996;4.458;2022-08-19T02:17:08;20.10;99.90
25112;DHT22;13092;51.996;4.458;2022-08-19T02:19:36;20.00;99.90
25112;DHT22;13092;51.996;4.458;2022-08-19T02:22:07;19.90;99.90
25112;DHT22;13092;51.996;4.458;2022-08-19T02:24:36;20.00;99.90
25112;DHT22;13092;51.996;4.458;2022-08-19T02:27:07;20.00;99.90
25112;DHT22;13092;51.996;4.458;2022-08-19T02:29:35;20.00;99.90
25112;DHT22;13092;51.996;4.458;2022-08-19T02:32:03;20.00;99.90
25112;DHT22;13092;51.996;4.458;2022-08-19T02:34:32;20.00;99.90
25112;DHT22;13092;51.996;4.458;2022-08-19T02:37:04;19.90;99.90
25112;DHT22;13092;51.996;4.458;2022-08-19T02:39:53;20.00;99.90
25112;DHT22;13092;51.996;4.458;2022-08-19T02:42:22;19.90;99.90
25112;DHT22;13092;51.996;4.458;2022-08-19T02:44:51;20.00;99.90
25112;DHT22;13092;51.996;4.458;2022-08-19T02:47:19;19.90;99.90
25112;DHT22;13092;51.996;4.458;2022-08-19T02:49:48;19.80;99.90
25112;DHT22;13092;51.996;4.458;2022-08-19T02:52:16;19.90;99.90
25112;DHT22;13092;51.996;4.458;2022-08-19T02:54:44;19.70;99.90
25112;DHT22;13092;51.996;4.458;2022-08-19T02:57:12;19.70;99.90
25112;DHT22;13092;51.996;4.458;2022-08-19T02:59:42;19.70;99.90
25112;DHT22;13092;51.996;4.458;2022-08-19T03:02:10;19.70;99.90
25112;DHT22;13092;51.996;4.458;2022-08-19T03:04:39;19.70;99.90
25112;DHT22;13092;51.996;4.458;2022-08-19T03:07:15;19.70;99.90
25112;DHT22;13092;51.996;4.458;2022-08-19T03:09:46;19.70;99.90
25112;DHT22;13092;51.996;4.458;2022-08-19T03:12:14;19.60;99.90
25112;DHT22;13092;51.996;4.458;2022-08-19T03:14:44;19.60;99.90
25112;DHT22;13092;51.996;4.458;2022-08-19T03:17:13;19.60;99.90
25112;DHT22;13092;51.996;4.458;2022-08-19T03:19:46;19.70;99.90
25112;DHT22;13092;51.996;4.458;2022-08-19T03:22:15;19.50;99.90
25112;DHT22;13092;51.996;4.458;2022-08-19T03:24:43;19.60;99.90
25112;DHT22;13092;51.996;4.458;2022-08-19T03:27:11;19.50;99.90
25112;DHT22;13092;51.996;4.458;2022-08-19T03:29:41;19.60;99.90
25112;DHT22;13092;51.996;4.458;2022-08-19T03:32:11;19.60;99.90
25112;DHT22;13092;51.996;4.458;2022-08-19T03:34:58;19.60;99.90
25112;DHT22;13092;51.996;4.458;2022-08-19T03:37:27;19.70;99.90
25112;DHT22;13092;51.996;4.458;2022-08-19T03:39:55;19.70;99.90
25112;DHT22;13092;51.996;4.458;2022-08-19T03:42:24;19.50;99.90
25112;DHT22;13092;51.996;4.458;2022-08-19T03:45:05;19.60;99.90
25112;DHT22;13092;51.996;4.458;2022-08-19T03:47:39;19.60;99.90
25112;DHT22;13092;51.996;4.458;2022-08-19T03:50:11;19.70;99.90
25112;DHT22;13092;51.996;4.458;2022-08-19T03:52:39;19.60;99.90
25112;DHT22;13092;51.996;4.458;2022-08-19T03:55:12;19.60;99.90
25112;DHT22;13092;51.996;4.458;2022-08-19T03:57:42;19.50;99.90
25112;DHT22;13092;51.996;4.458;2022-08-19T04:00:15;19.50;99.90
25112;DHT22;13092;51.996;4.458;2022-08-19T04:02:45;19.50;99.90
25112;DHT22;13092;51.996;4.458;2022-08-19T04:05:27;19.40;99.90
25112;DHT22;13092;51.996;4.458;2022-08-19T04:08:02;19.50;99.90
25112;DHT22;13092;51.996;4.458;2022-08-19T04:10:30;19.40;99.90
25112;DHT22;13092;51.996;4.458;2022-08-19T04:13:02;19.40;99.90
25112;DHT22;13092;51.996;4.458;2022-08-19T04:15:31;19.50;99.90
25112;DHT22;13092;51.996;4.458;2022-08-19T04:18:04;19.50;99.90
25112;DHT22;13092;51.996;4.458;2022-08-19T04:20:42;19.40;99.90
25112;DHT22;13092;51.996;4.458;2022-08-19T04:23:14;19.40;99.90
25112;DHT22;13092;51.996;4.458;2022-08-19T04:25:44;19.20;99.90
25112;DHT22;13092;51.996;4.458;2022-08-19T04:28:13;19.40;99.90
25112;DHT22;13092;51.996;4.458;2022-08-19T04:30:43;19.40;99.90
25112;DHT22;13092;51.996;4.458;2022-08-19T04:33:18;19.40;99.90
25112;DHT22;13092;51.996;4.458;2022-08-19T04:35:54;19.50;99.90
25112;DHT22;13092;51.996;4.458;2022-08-19T04:38:23;19.60;99.90
25112;DHT22;13092;51.996;4.458;2022-08-19T04:40:54;19.60;99.90
25112;DHT22;13092;51.996;4.458;2022-08-19T04:43:39;19.70;99.90
25112;DHT22;13092;51.996;4.458;2022-08-19T04:46:12;19.70;99.90
25112;DHT22;13092;51.996;4.458;2022-08-19T04:49:05;19.70;99.90
25112;DHT22;13092;51.996;4.458;2022-08-19T04:51:41;19.70;99.90
25112;DHT22;13092;51.996;4.458;2022-08-19T04:54:10;19.80;99.90
25112;DHT22;13092;51.996;4.458;2022-08-19T04:56:40;19.80;99.90
25112;DHT22;13092;51.996;4.458;2022-08-19T04:59:08;19.80;99.90
25112;DHT22;13092;51.996;4.458;2022-08-19T05:01:37;19.80;99.90
25112;DHT22;13092;51.996;4.458;2022-08-19T05:04:07;19.80;99.90
25112;DHT22;13092;51.996;4.458;2022-08-19T05:06:36;19.80;99.90
25112;DHT22;13092;51.996;4.458;2022-08-19T05:09:05;19.90;99.90
25112;DHT22;13092;51.996;4.458;2022-08-19T05:11:35;19.90;99.90
25112;DHT22;13092;51.996;4.458;2022-08-19T05:14:07;20.00;99.90
25112;DHT22;13092;51.996;4.458;2022-08-19T05:16:40;20.10;99.90
25112;DHT22;13092;51.996;4.458;2022-08-19T05:19:13;20.00;99.90
25112;DHT22;13092;51.996;4.458;2022-08-19T05:22:04;20.00;99.90
25112;DHT22;13092;51.996;4.458;2022-08-19T05:24:50;20.10;99.90
25112;DHT22;13092;51.996;4.458;2022-08-19T05:27:38;20.10;99.90
25112;DHT22;13092;51.996;4.458;2022-08-19T05:30:10;20.20;99.90
25112;DHT22;13092;51.996;4.458;2022-08-19T05:32:42;20.30;99.90
25112;DHT22;13092;51.996;4.458;2022-08-19T05:35:12;20.30;99.90
25112;DHT22;13092;51.996;4.458;2022-08-19T05:37:40;20.40;99.90
25112;DHT22;13092;51.996;4.458;2022-08-19T05:40:11;20.40;99.90
25112;DHT22;13092;51.996;4.458;2022-08-19T05:42:42;20.50;99.90
25112;DHT22;13092;51.996;4.458;2022-08-19T05:45:21;20.50;99.90
25112;DHT22;13092;51.996;4.458;2022-08-19T05:47:49;20.50;99.90
25112;DHT22;13092;51.996;4.458;2022-08-19T05:50:21;20.50;99.90
25112;DHT22;13092;51.996;4.458;2022-08-19T05:52:49;20.40;99.90
25112;DHT22;13092;51.996;4.458;2022-08-19T05:55:18;20.60;99.90
25112;DHT22;13092;51.996;4.458;2022-08-19T05:57:47;20.60;99.90
25112;DHT22;13092;51.996;4.458;2022-08-19T06:00:15;20.60;99.90
25112;DHT22;13092;51.996;4.458;2022-08-19T06:02:50;20.60;99.90
25112;DHT22;13092;51.996;4.458;2022-08-19T06:05:23;20.70;99.90
25112;DHT22;13092;51.996;4.458;2022-08-19T06:07:51;20.80;99.90
25112;DHT22;13092;51.996;4.458;2022-08-19T06:10:31;20.70;99.90
25112;DHT22;13092;51.996;4.458;2022-08-19T06:13:04;20.70;99.90
25112;DHT22;13092;51.996;4.458;2022-08-19T06:15:34;20.80;99.90
25112;DHT22;13092;51.996;4.458;2022-08-19T06:18:05;20.80;99.90
25112;DHT22;13092;51.996;4.458;2022-08-19T06:20:42;20.90;99.90
25112;DHT22;13092;51.996;4.458;2022-08-19T06:23:22;21.00;99.90
25112;DHT22;13092;51.996;4.458;2022-08-19T06:25:50;21.00;99.90
25112;DHT22;13092;51.996;4.458;2022-08-19T06:28:21;20.90;99.90
25112;DHT22;13092;51.996;4.458;2022-08-19T06:30:50;21.10;99.90
25112;DHT22;13092;51.996;4.458;2022-08-19T06:33:21;21.10;99.90
25112;DHT22;13092;51.996;4.458;2022-08-19T06:35:52;21.10;99.90
25112;DHT22;13092;51.996;4.458;2022-08-19T06:38:31;21.20;99.90
25112;DHT22;13092;51.996;4.458;2022-08-19T06:41:02;21.20;99.90
25112;DHT22;13092;51.996;4.458;2022-08-19T06:43:34;21.30;99.90
25112;DHT22;13092;51.996;4.458;2022-08-19T06:46:12;21.30;99.90
25112;DHT22;13092;51.996;4.458;2022-08-19T06:48:41;21.40;99.90
25112;DHT22;13092;51.996;4.458;2022-08-19T06:51:18;21.50;99.90
25112;DHT22;13092;51.996;4.458;2022-08-19T06:53:53;21.50;99.90
25112;DHT22;13092;51.996;4.458;2022-08-19T06:56:23;21.50;99.90
25112;DHT22;13092;51.996;4.458;2022-08-19T06:59:00;21.60;99.90
25112;DHT22;13092;51.996;4.458;2022-08-19T07:01:34;21.60;99.90
25112;DHT22;13092;51.996;4.458;2022-08-19T07:04:07;21.60;99.90
25112;DHT22;13092;51.996;4.458;2022-08-19T07:06:48;21.70;99.90
25112;DHT22;13092;51.996;4.458;2022-08-19T07:09:23;21.90;99.90
25112;DHT22;13092;51.996;4.458;2022-08-19T07:12:07;22.00;99.90
25112;DHT22;13092;51.996;4.458;2022-08-19T07:14:41;22.10;99.90
25112;DHT22;13092;51.996;4.458;2022-08-19T07:17:15;22.10;99.90
25112;DHT22;13092;51.996;4.458;2022-08-19T07:19:49;22.20;99.90
25112;DHT22;13092;51.996;4.458;2022-08-19T07:22:22;22.10;99.90
25112;DHT22;13092;51.996;4.458;2022-08-19T07:24:51;22.20;99.90
25112;DHT22;13092;51.996;4.458;2022-08-19T07:27:23;22.20;99.90
25112;DHT22;13092;51.996;4.458;2022-08-19T07:29:56;22.30;99.90
25112;DHT22;13092;51.996;4.458;2022-08-19T07:32:38;22.40;99.90
25112;DHT22;13092;51.996;4.458;2022-08-19T07:35:16;22.30;99.90
25112;DHT22;13092;51.996;4.458;2022-08-19T07:37:49;22.50;99.90
25112;DHT22;13092;51.996;4.458;2022-08-19T07:40:22;22.40;99.90
25112;DHT22;13092;51.996;4.458;2022-08-19T07:42:51;22.40;99.90
25112;DHT22;13092;51.996;4.458;2022-08-19T07:45:19;22.30;99.90
25112;DHT22;13092;51.996;4.458;2022-08-19T07:47:48;22.30;99.90
25112;DHT22;13092;51.996;4.458;2022-08-19T07:50:35;22.30;99.90
25112;DHT22;13092;51.996;4.458;2022-08-19T07:53:15;22.30;99.90
25112;DHT22;13092;51.996;4.458;2022-08-19T07:55:54;22.40;99.90
25112;DHT22;13092;51.996;4.458;2022-08-19T07:59:04;22.50;99.90
25112;DHT22;13092;51.996;4.458;2022-08-19T08:02:06;22.60;99.90
25112;DHT22;13092;51.996;4.458;2022-08-19T08:05:01;22.70;99.90
25112;DHT22;13092;51.996;4.458;2022-08-19T08:08:11;22.80;99.90
25112;DHT22;13092;51.996;4.458;2022-08-19T08:11:08;22.80;99.90
25112;DHT22;13092;51.996;4.458;2022-08-19T08:13:44;22.90;99.90
25112;DHT22;13092;51.996;4.458;2022-08-19T08:16:27;23.00;99.90
25112;DHT22;13092;51.996;4.458;2022-08-19T08:18:58;23.20;99.90
25112;DHT22;13092;51.996;4.458;2022-08-19T08:21:28;23.10;99.90
25112;DHT22;13092;51.996;4.458;2022-08-19T08:24:11;23.30;99.90
25112;DHT22;13092;51.996;4.458;2022-08-19T08:29:55;23.40;99.90
25112;DHT22;13092;51.996;4.458;2022-08-19T08:32:49;23.30;99.90
25112;DHT22;13092;51.996;4.458;2022-08-19T08:35:26;23.40;99.90
25112;DHT22;13092;51.996;4.458;2022-08-19T08:38:02;23.40;99.90
25112;DHT22;13092;51.996;4.458;2022-08-19T08:40:44;23.30;99.90
25112;DHT22;13092;51.996;4.458;2022-08-19T08:43:38;23.30;99.90
25112;DHT22;13092;51.996;4.458;2022-08-19T08:46:23;23.40;99.90
25112;DHT22;13092;51.996;4.458;2022-08-19T08:49:06;23.50;99.90
25112;DHT22;13092;51.996;4.458;2022-08-19T08:52:11;23.60;99.90
25112;DHT22;13092;51.996;4.458;2022-08-19T08:54:43;23.70;99.90
25112;DHT22;13092;51.996;4.458;2022-08-19T08:57:25;23.80;99.90
25112;DHT22;13092;51.996;4.458;2022-08-19T09:00:18;23.90;99.90
25112;DHT22;13092;51.996;4.458;2022-08-19T09:03:16;24.10;99.90
25112;DHT22;13092;51.996;4.458;2022-08-19T09:06:35;24.30;99.90
25112;DHT22;13092;51.996;4.458;2022-08-19T09:09:05;24.50;99.90
25112;DHT22;13092;51.996;4.458;2022-08-19T09:12:00;24.70;99.90
25112;DHT22;13092;51.996;4.458;2022-08-19T09:15:25;24.70;99.90
25112;DHT22;13092;51.996;4.458;2022-08-19T09:18:04;24.50;99.90
25112;DHT22;13092;51.996;4.458;2022-08-19T09:20:54;24.60;99.90
25112;DHT22;13092;51.996;4.458;2022-08-19T09:23:32;24.60;99.90
25112;DHT22;13092;51.996;4.458;2022-08-19T09:26:33;24.50;99.90
25112;DHT22;13092;51.996;4.458;2022-08-19T09:29:27;24.50;99.90
25112;DHT22;13092;51.996;4.458;2022-08-19T09:32:27;24.40;99.90
25112;DHT22;13092;51.996;4.458;2022-08-19T09:37:54;24.40;99.90
25112;DHT22;13092;51.996;4.458;2022-08-19T09:41:01;24.30;99.90
25112;DHT22;13092;51.996;4.458;2022-08-19T09:43:33;24.10;99.90
25112;DHT22;13092;51.996;4.458;2022-08-19T09:49:16;24.00;99.90
25112;DHT22;13092;51.996;4.458;2022-08-19T09:51:57;24.00;99.90
25112;DHT22;13092;51.996;4.458;2022-08-19T09:54:41;24.00;99.90
25112;DHT22;13092;51.996;4.458;2022-08-19T09:57:29;24.10;99.90
25112;DHT22;13092;51.996;4.458;2022-08-19T10:00:23;24.20;99.90
25112;DHT22;13092;51.996;4.458;2022-08-19T10:03:04;24.20;99.90
25112;DHT22;13092;51.996;4.458;2022-08-19T10:05:38;24.30;99.90
25112;DHT22;13092;51.996;4.458;2022-08-19T10:08:23;24.30;99.90
25112;DHT22;13092;51.996;4.458;2022-08-19T10:10:53;24.50;99.90
25112;DHT22;13092;51.996;4.458;2022-08-19T10:13:26;24.70;99.90
25112;DHT22;13092;51.996;4.458;2022-08-19T10:16:01;24.90;99.90
25112;DHT22;13092;51.996;4.458;2022-08-19T10:18:30;25.00;99.90
25112;DHT22;13092;51.996;4.458;2022-08-19T10:21:13;25.20;99.90
25112;DHT22;13092;51.996;4.458;2022-08-19T10:23:55;25.40;99.90
25112;DHT22;13092;51.996;4.458;2022-08-19T10:26:34;25.70;99.90
25112;DHT22;13092;51.996;4.458;2022-08-19T10:29:08;25.70;99.90
25112;DHT22;13092;51.996;4.458;2022-08-19T10:32:20;25.60;99.90
25112;DHT22;13092;51.996;4.458;2022-08-19T10:35:03;25.40;99.90
25112;DHT22;13092;51.996;4.458;2022-08-19T10:37:43;25.20;99.90
25112;DHT22;13092;51.996;4.458;2022-08-19T10:40:23;25.30;99.90
25112;DHT22;13092;51.996;4.458;2022-08-19T10:42:51;25.40;99.90
25112;DHT22;13092;51.996;4.458;2022-08-19T10:45:22;25.30;99.90
25112;DHT22;13092;51.996;4.458;2022-08-19T10:51:31;25.00;99.90
25112;DHT22;13092;51.996;4.458;2022-08-19T10:54:33;24.80;99.90
25112;DHT22;13092;51.996;4.458;2022-08-19T11:01:12;24.80;99.90
25112;DHT22;13092;51.996;4.458;2022-08-19T11:03:42;24.80;99.90
25112;DHT22;13092;51.996;4.458;2022-08-19T11:06:43;24.60;99.90
25112;DHT22;13092;51.996;4.458;2022-08-19T11:09:46;24.50;99.90
25112;DHT22;13092;51.996;4.458;2022-08-19T11:12:31;24.30;99.90
25112;DHT22;13092;51.996;4.458;2022-08-19T11:15:03;24.30;99.90
25112;DHT22;13092;51.996;4.458;2022-08-19T11:17:34;24.30;99.90
25112;DHT22;13092;51.996;4.458;2022-08-19T11:20:12;24.50;99.90
25112;DHT22;13092;51.996;4.458;2022-08-19T11:22:42;24.50;99.90
25112;DHT22;13092;51.996;4.458;2022-08-19T11:25:33;24.60;99.90
25112;DHT22;13092;51.996;4.458;2022-08-19T11:28:15;24.70;99.90
25112;DHT22;13092;51.996;4.458;2022-08-19T11:30:53;24.70;99.90
25112;DHT22;13092;51.996;4.458;2022-08-19T11:33:21;24.70;99.90
25112;DHT22;13092;51.996;4.458;2022-08-19T11:35:49;24.70;99.90
25112;DHT22;13092;51.996;4.458;2022-08-19T11:38:17;25.00;99.90
25112;DHT22;13092;51.996;4.458;2022-08-19T11:40:54;25.10;99.90
25112;DHT22;13092;51.996;4.458;2022-08-19T11:43:25;25.10;99.90
25112;DHT22;13092;51.996;4.458;2022-08-19T11:46:04;25.00;99.90
25112;DHT22;13092;51.996;4.458;2022-08-19T11:48:34;24.90;99.90
25112;DHT22;13092;51.996;4.458;2022-08-19T11:51:07;24.90;99.90
25112;DHT22;13092;51.996;4.458;2022-08-19T11:53:38;24.80;99.90
25112;DHT22;13092;51.996;4.458;2022-08-19T11:56:09;24.90;99.90
25112;DHT22;13092;51.996;4.458;2022-08-19T11:58:37;24.90;99.90
25112;DHT22;13092;51.996;4.458;2022-08-19T12:01:06;25.00;99.90
25112;DHT22;13092;51.996;4.458;2022-08-19T12:03:36;25.00;99.90
25112;DHT22;13092;51.996;4.458;2022-08-19T12:06:08;25.00;99.90
25112;DHT22;13092;51.996;4.458;2022-08-19T12:08:39;25.10;99.90
25112;DHT22;13092;51.996;4.458;2022-08-19T12:11:10;25.20;99.90
25112;DHT22;13092;51.996;4.458;2022-08-19T12:13:38;25.30;99.90
25112;DHT22;13092;51.996;4.458;2022-08-19T12:16:08;25.20;99.90
25112;DHT22;13092;51.996;4.458;2022-08-19T12:18:40;25.20;99.90
25112;DHT22;13092;51.996;4.458;2022-08-19T12:21:13;25.30;99.90
25112;DHT22;13092;51.996;4.458;2022-08-19T12:23:43;25.30;99.90
25112;DHT22;13092;51.996;4.458;2022-08-19T12:26:13;25.40;99.90
25112;DHT22;13092;51.996;4.458;2022-08-19T12:28:41;25.40;99.90
25112;DHT22;13092;51.996;4.458;2022-08-19T12:31:10;25.30;99.90
25112;DHT22;13092;51.996;4.458;2022-08-19T12:33:39;25.30;99.90
25112;DHT22;13092;51.996;4.458;2022-08-19T12:36:11;25.20;99.90
25112;DHT22;13092;51.996;4.458;2022-08-19T12:38:40;25.30;99.90
25112;DHT22;13092;51.996;4.458;2022-08-19T12:41:10;25.30;99.90
25112;DHT22;13092;51.996;4.458;2022-08-19T12:43:40;25.50;99.90
25112;DHT22;13092;51.996;4.458;2022-08-19T12:46:12;25.50;99.90
25112;DHT22;13092;51.996;4.458;2022-08-19T12:48:43;25.60;99.90
25112;DHT22;13092;51.996;4.458;2022-08-19T12:51:14;25.50;99.90
25112;DHT22;13092;51.996;4.458;2022-08-19T12:53:45;25.50;99.90
25112;DHT22;13092;51.996;4.458;2022-08-19T12:56:14;25.40;99.90
25112;DHT22;13092;51.996;4.458;2022-08-19T12:58:50;25.50;99.90
25112;DHT22;13092;51.996;4.458;2022-08-19T13:01:19;25.50;99.90
25112;DHT22;13092;51.996;4.458;2022-08-19T13:03:49;25.40;99.90
25112;DHT22;13092;51.996;4.458;2022-08-19T13:06:19;25.40;99.90
25112;DHT22;13092;51.996;4.458;2022-08-19T13:08:48;25.30;99.90
25112;DHT22;13092;51.996;4.458;2022-08-19T13:11:24;25.30;99.90
25112;DHT22;13092;51.996;4.458;2022-08-19T13:14:01;25.50;99.90
25112;DHT22;13092;51.996;4.458;2022-08-19T13:16:30;25.70;99.90
25112;DHT22;13092;51.996;4.458;2022-08-19T13:19:00;25.70;99.90
25112;DHT22;13092;51.996;4.458;2022-08-19T13:21:29;25.60;99.90
25112;DHT22;13092;51.996;4.458;2022-08-19T13:24:00;25.70;99.90
25112;DHT22;13092;51.996;4.458;2022-08-19T13:26:28;25.80;99.90
25112;DHT22;13092;51.996;4.458;2022-08-19T13:29:03;25.90;99.90
25112;DHT22;13092;51.996;4.458;2022-08-19T13:31:45;25.70;99.90
25112;DHT22;13092;51.996;4.458;2022-08-19T13:34:39;25.80;99.90
25112;DHT22;13092;51.996;4.458;2022-08-19T13:37:19;25.70;99.90
25112;DHT22;13092;51.996;4.458;2022-08-19T13:40:27;25.70;99.90
25112;DHT22;13092;51.996;4.458;2022-08-19T13:43:11;25.60;99.90
25112;DHT22;13092;51.996;4.458;2022-08-19T13:49:36;25.70;99.90
25112;DHT22;13092;51.996;4.458;2022-08-19T14:02:41;25.60;99.90
25112;DHT22;13092;51.996;4.458;2022-08-19T14:05:15;25.50;99.90
25112;DHT22;13092;51.996;4.458;2022-08-19T14:07:44;25.50;99.90
25112;DHT22;13092;51.996;4.458;2022-08-19T14:10:14;25.40;99.90
25112;DHT22;13092;51.996;4.458;2022-08-19T14:12:44;25.30;99.90
25112;DHT22;13092;51.996;4.458;2022-08-19T14:15:18;25.30;99.90
25112;DHT22;13092;51.996;4.458;2022-08-19T14:20:24;25.20;99.90
25112;DHT22;13092;51.996;4.458;2022-08-19T14:22:55;25.10;99.90
25112;DHT22;13092;51.996;4.458;2022-08-19T14:25:26;25.30;99.90
25112;DHT22;13092;51.996;4.458;2022-08-19T14:27:55;25.10;99.90
25112;DHT22;13092;51.996;4.458;2022-08-19T14:30:26;25.10;99.90
25112;DHT22;13092;51.996;4.458;2022-08-19T14:32:55;25.10;99.90
25112;DHT22;13092;51.996;4.458;2022-08-19T14:35:26;25.30;99.90
25112;DHT22;13092;51.996;4.458;2022-08-19T14:37:56;25.30;99.90
25112;DHT22;13092;51.996;4.458;2022-08-19T14:40:28;25.30;99.90
25112;DHT22;13092;51.996;4.458;2022-08-19T14:42:58;25.30;99.90
25112;DHT22;13092;51.996;4.458;2022-08-19T14:45:32;25.40;99.90
25112;DHT22;13092;51.996;4.458;2022-08-19T14:48:02;25.30;99.90
25112;DHT22;13092;51.996;4.458;2022-08-19T14:50:33;25.20;99.90
25112;DHT22;13092;51.996;4.458;2022-08-19T14:53:05;25.10;99.90
25112;DHT22;13092;51.996;4.458;2022-08-19T14:55:41;25.10;99.90
25112;DHT22;13092;51.996;4.458;2022-08-19T14:58:10;24.90;99.90
25112;DHT22;13092;51.996;4.458;2022-08-19T15:00:56;24.80;99.90
25112;DHT22;13092;51.996;4.458;2022-08-19T15:03:25;24.70;99.90
25112;DHT22;13092;51.996;4.458;2022-08-19T15:05:55;24.70;99.90
25112;DHT22;13092;51.996;4.458;2022-08-19T15:08:25;24.30;99.90
25112;DHT22;13092;51.996;4.458;2022-08-19T15:10:54;24.30;99.90
25112;DHT22;13092;51.996;4.458;2022-08-19T15:13:22;24.20;99.90
25112;DHT22;13092;51.996;4.458;2022-08-19T15:15:51;24.10;99.90
25112;DHT22;13092;51.996;4.458;2022-08-19T15:18:19;23.90;99.90
25112;DHT22;13092;51.996;4.458;2022-08-19T15:20:48;23.60;99.90
25112;DHT22;13092;51.996;4.458;2022-08-19T15:23:19;23.30;99.90
25112;DHT22;13092;51.996;4.458;2022-08-19T15:25:48;23.10;99.90
25112;DHT22;13092;51.996;4.458;2022-08-19T15:28:20;23.00;99.90
25112;DHT22;13092;51.996;4.458;2022-08-19T15:30:48;22.90;99.90
25112;DHT22;13092;51.996;4.458;2022-08-19T15:33:17;22.90;99.90
25112;DHT22;13092;51.996;4.458;2022-08-19T15:35:47;22.90;99.90
25112;DHT22;13092;51.996;4.458;2022-08-19T15:38:19;23.00;99.90
25112;DHT22;13092;51.996;4.458;2022-08-19T15:40:48;22.90;99.90
25112;DHT22;13092;51.996;4.458;2022-08-19T15:43:18;22.80;99.90
25112;DHT22;13092;51.996;4.458;2022-08-19T15:45:47;22.70;99.90
25112;DHT22;13092;51.996;4.458;2022-08-19T15:48:15;22.70;99.90
25112;DHT22;13092;51.996;4.458;2022-08-19T15:50:46;22.70;99.90
25112;DHT22;13092;51.996;4.458;2022-08-19T16:25:57;24.30;99.90
25112;DHT22;13092;51.996;4.458;2022-08-19T16:28:28;24.30;99.90
25112;DHT22;13092;51.996;4.458;2022-08-19T16:30:57;24.30;99.90
25112;DHT22;13092;51.996;4.458;2022-08-19T16:33:26;24.40;99.90
25112;DHT22;13092;51.996;4.458;2022-08-19T16:36:04;24.40;99.90
25112;DHT22;13092;51.996;4.458;2022-08-19T16:38:56;24.30;99.90
25112;DHT22;13092;51.996;4.458;2022-08-19T16:41:51;24.20;99.90
25112;DHT22;13092;51.996;4.458;2022-08-19T16:44:27;24.10;99.90
25112;DHT22;13092;51.996;4.458;2022-08-19T16:47:06;24.10;99.90
25112;DHT22;13092;51.996;4.458;2022-08-19T16:49:48;24.40;99.90
25112;DHT22;13092;51.996;4.458;2022-08-19T16:52:41;24.60;99.90
25112;DHT22;13092;51.996;4.458;2022-08-19T19:02:39;23.10;99.90
25112;DHT22;13092;51.996;4.458;2022-08-19T19:09:46;23.10;99.90
25112;DHT22;13092;51.996;4.458;2022-08-19T19:20:18;22.90;99.90
25112;DHT22;13092;51.996;4.458;2022-08-19T19:30:57;22.60;99.90
25112;DHT22;13092;51.996;4.458;2022-08-19T19:33:26;22.60;99.90
25112;DHT22;13092;51.996;4.458;2022-08-19T19:35:56;22.60;99.90
25112;DHT22;13092;51.996;4.458;2022-08-19T19:38:25;22.60;99.90
25112;DHT22;13092;51.996;4.458;2022-08-19T19:40:55;22.60;99.90
25112;DHT22;13092;51.996;4.458;2022-08-19T19:43:25;22.60;99.90
25112;DHT22;13092;51.996;4.458;2022-08-19T19:46:04;22.70;99.90
25112;DHT22;13092;51.996;4.458;2022-08-19T19:48:33;22.70;99.90
25112;DHT22;13092;51.996;4.458;2022-08-19T19:51:03;22.70;99.90